sensor_id;sensor_type;location;lat;lon;timestamp;pressure;altitude;pressure_sealevel;temperature;humidity
46456;BME280;64052;47.466;9.094;2022-11-20T00:01:53;95297.88;;;6.72;71.91
46456;BME280;64052;47.466;9.094;2022-11-20T00:06:54;95302.16;;;6.73;71.95
46456;BME280;64052;47.466;9.094;2022-11-20T00:11:55;95296.56;;;6.66;71.76
46456;BME280;64052;47.466;9.094;2022-11-20T00:16:57;95296.69;;;6.65;71.99
46456;BME280;64052;47.466;9.094;2022-11-20T00:21:58;95303.72;;;6.64;72.50
46456;BME280;64052;47.466;9.094;2022-11-20T00:27:00;95309.06;;;6.63;72.50
46456;BME280;64052;47.466;9.094;2022-11-20T00:32:01;95300.97;;;6.66;72.12
46456;BME280;64052;47.466;9.094;2022-11-20T00:37:03;95306.44;;;6.63;71.63
46456;BME280;64052;47.466;9.094;2022-11-20T00:42:04;95310.88;;;6.62;71.89
46456;BME280;64052;47.466;9.094;2022-11-20T00:47:06;95312.19;;;6.56;72.15
46456;BME280;64052;47.466;9.094;2022-11-20T00:52:07;95318.00;;;6.60;72.53
46456;BME280;64052;47.466;9.094;2022-11-20T00:57:08;95321.56;;;6.70;71.80
46456;BME280;64052;47.466;9.094;2022-11-20T01:02:10;95320.03;;;6.79;72.17
46456;BME280;64052;47.466;9.094;2022-11-20T01:07:11;95327.13;;;6.88;71.78
46456;BME280;64052;47.466;9.094;2022-11-20T01:12:13;95320.59;;;6.94;71.36
46456;BME280;64052;47.466;9.094;2022-11-20T01:17:14;95323.81;;;6.86;71.03
46456;BME280;64052;47.466;9.094;2022-11-20T01:22:16;95321.91;;;6.88;71.13
46456;BME280;64052;47.466;9.094;2022-11-20T01:27:17;95321.91;;;6.88;70.25
46456;BME280;64052;47.466;9.094;2022-11-20T01:32:19;95324.66;;;6.98;69.83
46456;BME280;64052;47.466;9.094;2022-11-20T01:37:20;95316.38;;;7.14;69.27
46456;BME280;64052;47.466;9.094;2022-11-20T01:42:22;95313.75;;;7.14;69.35
46456;BME280;64052;47.466;9.094;2022-11-20T01:47:33;95328.88;;;7.22;68.82
46456;BME280;64052;47.466;9.094;2022-11-20T01:52:39;95336.50;;;7.25;68.18
46456;BME280;64052;47.466;9.094;2022-11-20T01:57:44;95330.03;;;7.29;68.09
46456;BME280;64052;47.466;9.094;2022-11-20T02:03:01;95334.22;;;7.32;68.20
46456;BME280;64052;47.466;9.094;2022-11-20T02:08:05;95323.03;;;7.30;68.26
46456;BME280;64052;47.466;9.094;2022-11-20T02:13:08;95330.63;;;7.33;67.83
46456;BME280;64052;47.466;9.094;2022-11-20T02:18:11;95327.91;;;7.35;68.17
46456;BME280;64052;47.466;9.094;2022-11-20T02:28:16;95341.03;;;7.23;67.77
46456;BME280;64052;47.466;9.094;2022-11-20T02:33:19;95336.53;;;7.14;68.94
46456;BME280;64052;47.466;9.094;2022-11-20T02:38:20;95346.41;;;7.10;69.22
46456;BME280;64052;47.466;9.094;2022-11-20T02:43:22;95349.75;;;7.12;68.98
46456;BME280;64052;47.466;9.094;2022-11-20T02:48:24;95347.72;;;7.16;68.37
46456;BME280;64052;47.466;9.094;2022-11-20T02:53:25;95342.38;;;7.17;69.37
46456;BME280;64052;47.466;9.094;2022-11-20T02:58:27;95348.31;;;7.20;68.95
46456;BME280;64052;47.466;9.094;2022-11-20T03:03:28;95339.59;;;7.19;68.75
46456;BME280;64052;47.466;9.094;2022-11-20T03:08:30;95338.53;;;7.22;68.21
46456;BME280;64052;47.466;9.094;2022-11-20T03:13:32;95338.66;;;7.20;68.69
46456;BME280;64052;47.466;9.094;2022-11-20T03:18:33;95336.63;;;7.24;67.90
46456;BME280;64052;47.466;9.094;2022-11-20T03:23:35;95343.03;;;7.31;67.80
46456;BME280;64052;47.466;9.094;2022-11-20T03:28:38;95341.97;;;7.22;66.70
46456;BME280;64052;47.466;9.094;2022-11-20T03:33:40;95336.97;;;7.19;66.97
46456;BME280;64052;47.466;9.094;2022-11-20T03:38:42;95339.59;;;7.19;66.42
46456;BME280;64052;47.466;9.094;2022-11-20T03:43:52;95346.31;;;7.12;66.38
46456;BME280;64052;47.466;9.094;2022-11-20T03:48:54;95352.63;;;7.09;66.24
46456;BME280;64052;47.466;9.094;2022-11-20T03:53:59;95349.28;;;7.07;66.63
46456;BME280;64052;47.466;9.094;2022-11-20T03:59:02;95358.69;;;7.10;66.24
46456;BME280;64052;47.466;9.094;2022-11-20T04:04:03;95358.56;;;7.11;65.92
46456;BME280;64052;47.466;9.094;2022-11-20T04:09:06;95357.16;;;7.07;66.53
46456;BME280;64052;47.466;9.094;2022-11-20T04:14:13;95357.97;;;7.08;66.46
46456;BME280;64052;47.466;9.094;2022-11-20T04:19:15;95356.78;;;7.12;66.40
46456;BME280;64052;47.466;9.094;2022-11-20T04:24:17;95348.34;;;7.08;66.01
46456;BME280;64052;47.466;9.094;2022-11-20T04:29:18;95345.97;;;6.94;66.25
46456;BME280;64052;47.466;9.094;2022-11-20T04:34:20;95343.00;;;6.87;66.62
46456;BME280;64052;47.466;9.094;2022-11-20T04:39:22;95348.47;;;6.95;66.66
46456;BME280;64052;47.466;9.094;2022-11-20T04:44:24;95344.06;;;6.96;66.32
46456;BME280;64052;47.466;9.094;2022-11-20T04:49:25;95351.94;;;6.84;66.68
46456;BME280;64052;47.466;9.094;2022-11-20T04:54:27;95347.75;;;6.82;66.38
46456;BME280;64052;47.466;9.094;2022-11-20T04:59:28;95350.50;;;6.80;66.14
46456;BME280;64052;47.466;9.094;2022-11-20T05:04:30;95353.72;;;6.72;66.49
46456;BME280;64052;47.466;9.094;2022-11-20T05:09:31;95357.28;;;6.83;66.82
46456;BME280;64052;47.466;9.094;2022-11-20T05:14:33;95351.31;;;6.92;66.47
46456;BME280;64052;47.466;9.094;2022-11-20T05:19:34;95346.22;;;6.79;66.36
46456;BME280;64052;47.466;9.094;2022-11-20T05:24:36;95358.03;;;6.73;66.77
46456;BME280;64052;47.466;9.094;2022-11-20T05:29:37;95366.94;;;6.82;67.10
46456;BME280;64052;47.466;9.094;2022-11-20T05:34:39;95361.00;;;6.80;67.02
46456;BME280;64052;47.466;9.094;2022-11-20T05:39:40;95362.88;;;6.78;67.77
46456;BME280;64052;47.466;9.094;2022-11-20T05:44:42;95356.22;;;6.74;67.84
46456;BME280;64052;47.466;9.094;2022-11-20T05:49:43;95361.00;;;6.69;67.96
46456;BME280;64052;47.466;9.094;2022-11-20T05:54:44;95373.38;;;6.55;68.65
46456;BME280;64052;47.466;9.094;2022-11-20T05:59:46;95371.22;;;6.49;68.36
46456;BME280;64052;47.466;9.094;2022-11-20T06:04:47;95378.44;;;6.34;69.16
46456;BME280;64052;47.466;9.094;2022-11-20T06:09:49;95375.69;;;6.24;69.39
46456;BME280;64052;47.466;9.094;2022-11-20T06:14:50;95379.59;;;6.07;69.38
46456;BME280;64052;47.466;9.094;2022-11-20T06:19:52;95378.25;;;6.01;69.50
46456;BME280;64052;47.466;9.094;2022-11-20T06:24:53;95378.34;;;6.00;69.98
46456;BME280;64052;47.466;9.094;2022-11-20T06:29:55;95377.97;;;5.93;69.84
46456;BME280;64052;47.466;9.094;2022-11-20T06:34:56;95378.19;;;5.90;70.33
46456;BME280;64052;47.466;9.094;2022-11-20T06:39:58;95392.69;;;5.83;70.31
46456;BME280;64052;47.466;9.094;2022-11-20T06:44:59;95391.78;;;5.95;70.06
46456;BME280;64052;47.466;9.094;2022-11-20T06:50:01;95398.44;;;5.99;70.94
46456;BME280;64052;47.466;9.094;2022-11-20T06:55:02;95396.56;;;6.01;70.55
46456;BME280;64052;47.466;9.094;2022-11-20T07:00:04;95407.41;;;6.08;70.61
46456;BME280;64052;47.466;9.094;2022-11-20T07:05:06;95400.06;;;6.13;71.16
46456;BME280;64052;47.466;9.094;2022-11-20T07:10:08;95398.31;;;6.25;70.47
46456;BME280;64052;47.466;9.094;2022-11-20T07:15:09;95411.78;;;6.32;71.39
46456;BME280;64052;47.466;9.094;2022-11-20T07:20:12;95422.13;;;6.33;70.43
46456;BME280;64052;47.466;9.094;2022-11-20T07:25:13;95430.56;;;6.26;70.66
46456;BME280;64052;47.466;9.094;2022-11-20T07:30:16;95418.47;;;6.36;69.97
46456;BME280;64052;47.466;9.094;2022-11-20T07:35:18;95425.25;;;6.50;69.52
46456;BME280;64052;47.466;9.094;2022-11-20T07:40:19;95423.25;;;6.54;69.04
46456;BME280;64052;47.466;9.094;2022-11-20T07:45:23;95425.19;;;6.63;68.71
46456;BME280;64052;47.466;9.094;2022-11-20T07:50:24;95419.34;;;6.82;68.34
46456;BME280;64052;47.466;9.094;2022-11-20T07:55:26;95421.03;;;6.95;67.59
46456;BME280;64052;47.466;9.094;2022-11-20T08:00:27;95424.72;;;7.03;67.95
46456;BME280;64052;47.466;9.094;2022-11-20T08:05:29;95420.53;;;7.24;66.65
46456;BME280;64052;47.466;9.094;2022-11-20T08:10:31;95433.16;;;7.41;65.58
46456;BME280;64052;47.466;9.094;2022-11-20T08:15:32;95417.13;;;7.67;63.93
46456;BME280;64052;47.466;9.094;2022-11-20T08:20:34;95432.44;;;7.83;64.04
46456;BME280;64052;47.466;9.094;2022-11-20T08:25:37;95432.09;;;7.77;62.26
46456;BME280;64052;47.466;9.094;2022-11-20T08:30:38;95428.31;;;7.69;61.98
46456;BME280;64052;47.466;9.094;2022-11-20T08:35:43;95427.63;;;7.67;62.90
46456;BME280;64052;47.466;9.094;2022-11-20T08:40:44;95436.63;;;7.74;62.49
46456;BME280;64052;47.466;9.094;2022-11-20T08:45:45;95435.78;;;7.85;62.40
46456;BME280;64052;47.466;9.094;2022-11-20T08:50:47;95433.72;;;7.89;61.76
46456;BME280;64052;47.466;9.094;2022-11-20T08:55:48;95434.94;;;7.85;62.19
46456;BME280;64052;47.466;9.094;2022-11-20T09:00:50;95441.84;;;8.19;61.58
46456;BME280;64052;47.466;9.094;2022-11-20T09:05:56;95443.84;;;8.59;60.55
46456;BME280;64052;47.466;9.094;2022-11-20T09:10:58;95440.56;;;8.67;59.02
46456;BME280;64052;47.466;9.094;2022-11-20T09:16:03;95440.28;;;8.49;59.46
46456;BME280;64052;47.466;9.094;2022-11-20T09:21:07;95448.09;;;8.39;59.34
46456;BME280;64052;47.466;9.094;2022-11-20T09:26:11;95440.34;;;8.37;59.13
46456;BME280;64052;47.466;9.094;2022-11-20T09:31:22;95439.69;;;8.45;59.43
46456;BME280;64052;47.466;9.094;2022-11-20T09:36:24;95435.50;;;8.54;59.34
46456;BME280;64052;47.466;9.094;2022-11-20T09:47:01;95441.25;;;8.48;58.87
46456;BME280;64052;47.466;9.094;2022-11-20T09:52:22;95442.44;;;8.43;59.46
46456;BME280;64052;47.466;9.094;2022-11-20T09:57:36;95442.00;;;8.38;59.06
46456;BME280;64052;47.466;9.094;2022-11-20T10:02:44;95428.97;;;8.15;60.91
46456;BME280;64052;47.466;9.094;2022-11-20T10:08:10;95425.91;;;8.10;59.50
46456;BME280;64052;47.466;9.094;2022-11-20T10:29:47;95417.06;;;8.11;58.44
46456;BME280;64052;47.466;9.094;2022-11-20T10:34:59;95431.44;;;8.28;57.88
46456;BME280;64052;47.466;9.094;2022-11-20T10:45:32;95427.00;;;7.75;59.59
46456;BME280;64052;47.466;9.094;2022-11-20T10:50:47;95422.59;;;7.64;60.48
46456;BME280;64052;47.466;9.094;2022-11-20T10:55:57;95429.50;;;7.65;60.47
46456;BME280;64052;47.466;9.094;2022-11-20T11:01:19;95417.53;;;7.84;60.34
46456;BME280;64052;47.466;9.094;2022-11-20T11:11:29;95414.06;;;7.83;59.81
46456;BME280;64052;47.466;9.094;2022-11-20T11:16:31;95412.94;;;7.97;59.45
46456;BME280;64052;47.466;9.094;2022-11-20T11:21:32;95415.69;;;8.50;58.42
46456;BME280;64052;47.466;9.094;2022-11-20T11:26:34;95404.09;;;8.74;56.38
46456;BME280;64052;47.466;9.094;2022-11-20T11:31:35;95403.00;;;8.55;56.77
46456;BME280;64052;47.466;9.094;2022-11-20T11:36:37;95394.91;;;8.25;57.23
46456;BME280;64052;47.466;9.094;2022-11-20T11:41:39;95377.94;;;9.03;56.37
46456;BME280;64052;47.466;9.094;2022-11-20T11:47:00;95369.94;;;9.14;55.72
46456;BME280;64052;47.466;9.094;2022-11-20T12:02:37;95356.41;;;8.88;54.72
46456;BME280;64052;47.466;9.094;2022-11-20T12:07:44;95347.97;;;8.94;55.72
46456;BME280;64052;47.466;9.094;2022-11-20T12:12:52;95346.44;;;10.21;53.36
46456;BME280;64052;47.466;9.094;2022-11-20T12:17:55;95350.69;;;13.84;44.21
46456;BME280;64052;47.466;9.094;2022-11-20T12:23:13;95329.91;;;15.67;40.11
46456;BME280;64052;47.466;9.094;2022-11-20T12:45:02;95307.94;;;10.68;47.87
46456;BME280;64052;47.466;9.094;2022-11-20T12:50:45;95314.72;;;10.13;49.56
46456;BME280;64052;47.466;9.094;2022-11-20T12:56:28;95303.25;;;9.65;51.56
46456;BME280;64052;47.466;9.094;2022-11-20T13:01:38;95286.69;;;11.44;47.26
46456;BME280;64052;47.466;9.094;2022-11-20T13:06:43;95297.88;;;13.74;41.81
46456;BME280;64052;47.466;9.094;2022-11-20T13:11:50;95284.28;;;13.52;40.41
46456;BME280;64052;47.466;9.094;2022-11-20T13:17:10;95277.59;;;12.88;43.32
46456;BME280;64052;47.466;9.094;2022-11-20T13:22:27;95266.25;;;13.81;41.39
46456;BME280;64052;47.466;9.094;2022-11-20T13:27:28;95260.88;;;13.31;42.54
46456;BME280;64052;47.466;9.094;2022-11-20T13:32:30;95262.88;;;12.51;44.15
46456;BME280;64052;47.466;9.094;2022-11-20T13:37:34;95252.09;;;12.36;44.98
46456;BME280;64052;47.466;9.094;2022-11-20T13:42:39;95251.53;;;12.59;44.71
46456;BME280;64052;47.466;9.094;2022-11-20T13:47:48;95252.03;;;12.54;44.03
46456;BME280;64052;47.466;9.094;2022-11-20T13:53:04;95244.66;;;11.50;45.74
46456;BME280;64052;47.466;9.094;2022-11-20T14:03:30;95239.63;;;10.37;48.74
46456;BME280;64052;47.466;9.094;2022-11-20T14:08:54;95234.09;;;9.92;50.89
46456;BME280;64052;47.466;9.094;2022-11-20T14:24:23;95226.25;;;9.53;51.11
46456;BME280;64052;47.466;9.094;2022-11-20T14:29:36;95217.13;;;9.47;52.06
46456;BME280;64052;47.466;9.094;2022-11-20T14:34:40;95210.72;;;9.40;51.53
46456;BME280;64052;47.466;9.094;2022-11-20T14:39:49;95211.56;;;9.31;51.80
46456;BME280;64052;47.466;9.094;2022-11-20T14:44:52;95207.97;;;9.22;52.70
46456;BME280;64052;47.466;9.094;2022-11-20T14:49:57;95207.00;;;9.23;53.19
46456;BME280;64052;47.466;9.094;2022-11-20T14:54:59;95208.53;;;9.16;53.15
46456;BME280;64052;47.466;9.094;2022-11-20T15:00:19;95219.31;;;9.12;52.57
46456;BME280;64052;47.466;9.094;2022-11-20T15:05:26;95213.63;;;9.07;53.28
46456;BME280;64052;47.466;9.094;2022-11-20T15:10:47;95212.50;;;9.00;53.17
46456;BME280;64052;47.466;9.094;2022-11-20T15:15:51;95203.25;;;8.96;53.86
46456;BME280;64052;47.466;9.094;2022-11-20T15:20:55;95193.53;;;8.86;54.38
46456;BME280;64052;47.466;9.094;2022-11-20T15:25:57;95185.13;;;8.83;54.36
46456;BME280;64052;47.466;9.094;2022-11-20T15:30:59;95184.41;;;8.71;56.58
46456;BME280;64052;47.466;9.094;2022-11-20T15:36:01;95183.53;;;8.51;57.97
46456;BME280;64052;47.466;9.094;2022-11-20T15:41:02;95175.44;;;8.33;58.80
46456;BME280;64052;47.466;9.094;2022-11-20T15:46:06;95179.25;;;8.19;59.77
46456;BME280;64052;47.466;9.094;2022-11-20T15:56:13;95155.69;;;7.97;61.00
46456;BME280;64052;47.466;9.094;2022-11-20T16:01:16;95138.53;;;7.93;61.06
46456;BME280;64052;47.466;9.094;2022-11-20T16:06:18;95139.53;;;7.71;62.36
46456;BME280;64052;47.466;9.094;2022-11-20T16:11:20;95137.22;;;7.78;61.60
46456;BME280;64052;47.466;9.094;2022-11-20T16:16:28;95152.09;;;7.67;62.47
46456;BME280;64052;47.466;9.094;2022-11-20T16:21:31;95147.00;;;7.44;62.34
46456;BME280;64052;47.466;9.094;2022-11-20T16:26:33;95151.28;;;7.45;63.49
46456;BME280;64052;47.466;9.094;2022-11-20T16:31:35;95139.94;;;7.45;63.38
46456;BME280;64052;47.466;9.094;2022-11-20T16:36:39;95143.53;;;7.44;63.59
46456;BME280;64052;47.466;9.094;2022-11-20T16:41:41;95144.75;;;7.40;63.99
46456;BME280;64052;47.466;9.094;2022-11-20T16:46:42;95142.22;;;7.28;64.11
46456;BME280;64052;47.466;9.094;2022-11-20T16:51:44;95141.25;;;7.29;61.90
46456;BME280;64052;47.466;9.094;2022-11-20T16:56:45;95143.53;;;7.44;60.87
46456;BME280;64052;47.466;9.094;2022-11-20T17:01:47;95148.66;;;7.45;60.37
46456;BME280;64052;47.466;9.094;2022-11-20T17:06:49;95135.75;;;7.54;59.64
46456;BME280;64052;47.466;9.094;2022-11-20T17:11:50;95136.81;;;7.51;59.20
46456;BME280;64052;47.466;9.094;2022-11-20T17:16:52;95118.16;;;7.44;60.42
46456;BME280;64052;47.466;9.094;2022-11-20T17:21:53;95123.34;;;7.35;60.67
46456;BME280;64052;47.466;9.094;2022-11-20T17:26:55;95118.94;;;7.35;60.55
46456;BME280;64052;47.466;9.094;2022-11-20T17:31:56;95127.75;;;7.34;60.09
46456;BME280;64052;47.466;9.094;2022-11-20T17:36:58;95116.72;;;7.40;60.39
46456;BME280;64052;47.466;9.094;2022-11-20T17:41:59;95119.22;;;7.42;59.36
46456;BME280;64052;47.466;9.094;2022-11-20T17:47:01;95116.19;;;7.37;59.53
46456;BME280;64052;47.466;9.094;2022-11-20T17:52:02;95115.47;;;7.35;60.18
46456;BME280;64052;47.466;9.094;2022-11-20T17:57:05;95124.94;;;7.26;60.34
46456;BME280;64052;47.466;9.094;2022-11-20T18:02:08;95129.53;;;7.12;61.05
46456;BME280;64052;47.466;9.094;2022-11-20T18:07:10;95110.81;;;6.96;60.84
46456;BME280;64052;47.466;9.094;2022-11-20T18:12:11;95113.22;;;6.87;61.76
46456;BME280;64052;47.466;9.094;2022-11-20T18:17:14;95113.03;;;6.79;61.91
46456;BME280;64052;47.466;9.094;2022-11-20T18:22:17;95108.41;;;6.71;62.61
46456;BME280;64052;47.466;9.094;2022-11-20T18:27:19;95114.03;;;6.67;63.29
46456;BME280;64052;47.466;9.094;2022-11-20T18:32:21;95115.94;;;6.65;63.12
46456;BME280;64052;47.466;9.094;2022-11-20T18:37:22;95112.94;;;6.69;62.73
46456;BME280;64052;47.466;9.094;2022-11-20T18:42:24;95104.97;;;6.71;62.33
46456;BME280;64052;47.466;9.094;2022-11-20T18:47:28;95102.34;;;6.71;62.94
46456;BME280;64052;47.466;9.094;2022-11-20T18:52:32;95098.03;;;6.81;63.15
46456;BME280;64052;47.466;9.094;2022-11-20T18:57:34;95094.56;;;6.81;63.23
46456;BME280;64052;47.466;9.094;2022-11-20T19:02:36;95098.97;;;6.80;62.59
46456;BME280;64052;47.466;9.094;2022-11-20T19:07:43;95089.06;;;6.84;63.18
46456;BME280;64052;47.466;9.094;2022-11-20T19:12:45;95089.25;;;6.92;62.99
46456;BME280;64052;47.466;9.094;2022-11-20T19:17:46;95096.03;;;6.95;62.91
46456;BME280;64052;47.466;9.094;2022-11-20T19:22:51;95089.00;;;6.95;60.67
46456;BME280;64052;47.466;9.094;2022-11-20T19:27:52;95093.09;;;7.09;60.83
46456;BME280;64052;47.466;9.094;2022-11-20T19:32:54;95100.25;;;7.28;60.89
46456;BME280;64052;47.466;9.094;2022-11-20T19:37:55;95115.91;;;7.40;59.38
46456;BME280;64052;47.466;9.094;2022-11-20T19:43:02;95141.44;;;7.16;60.14
46456;BME280;64052;47.466;9.094;2022-11-20T19:48:04;95161.38;;;6.75;64.58
46456;BME280;64052;47.466;9.094;2022-11-20T19:53:08;95149.34;;;6.40;66.81
46456;BME280;64052;47.466;9.094;2022-11-20T19:58:10;95160.56;;;6.19;68.32
46456;BME280;64052;47.466;9.094;2022-11-20T20:03:11;95170.56;;;6.25;68.90
46456;BME280;64052;47.466;9.094;2022-11-20T20:08:13;95167.22;;;6.12;68.26
46456;BME280;64052;47.466;9.094;2022-11-20T20:13:17;95177.91;;;5.97;70.25
46456;BME280;64052;47.466;9.094;2022-11-20T20:18:19;95178.63;;;5.99;70.41
46456;BME280;64052;47.466;9.094;2022-11-20T20:23:20;95167.22;;;5.89;72.74
46456;BME280;64052;47.466;9.094;2022-11-20T20:28:22;95181.38;;;6.09;72.78
46456;BME280;64052;47.466;9.094;2022-11-20T20:33:23;95176.03;;;6.11;72.49
46456;BME280;64052;47.466;9.094;2022-11-20T20:38:24;95191.72;;;5.88;72.62
46456;BME280;64052;47.466;9.094;2022-11-20T20:43:26;95184.81;;;5.87;72.12
46456;BME280;64052;47.466;9.094;2022-11-20T20:48:31;95189.22;;;5.75;72.47
46456;BME280;64052;47.466;9.094;2022-11-20T20:53:32;95204.56;;;5.68;72.44
46456;BME280;64052;47.466;9.094;2022-11-20T20:58:34;95203.34;;;5.61;72.43
46456;BME280;64052;47.466;9.094;2022-11-20T21:03:36;95215.72;;;5.70;72.48
46456;BME280;64052;47.466;9.094;2022-11-20T21:08:38;95210.50;;;5.70;72.07
46456;BME280;64052;47.466;9.094;2022-11-20T21:13:43;95217.63;;;5.68;72.40
46456;BME280;64052;47.466;9.094;2022-11-20T21:18:45;95238.06;;;5.74;72.71
46456;BME280;64052;47.466;9.094;2022-11-20T21:23:47;95233.91;;;5.72;72.16
46456;BME280;64052;47.466;9.094;2022-11-20T21:28:48;95230.69;;;5.68;73.03
46456;BME280;64052;47.466;9.094;2022-11-20T21:33:51;95237.47;;;5.71;73.45
46456;BME280;64052;47.466;9.094;2022-11-20T21:38:54;95252.13;;;5.85;73.19
46456;BME280;64052;47.466;9.094;2022-11-20T21:43:57;95257.59;;;5.82;73.05
46456;BME280;64052;47.466;9.094;2022-11-20T21:49:19;95270.31;;;5.86;73.62
46456;BME280;64052;47.466;9.094;2022-11-20T21:54:20;95280.19;;;5.83;73.67
46456;BME280;64052;47.466;9.094;2022-11-20T21:59:22;95274.41;;;5.66;74.61
46456;BME280;64052;47.466;9.094;2022-11-20T22:04:24;95258.28;;;5.72;73.53
46456;BME280;64052;47.466;9.094;2022-11-20T22:09:25;95251.63;;;5.68;74.83
46456;BME280;64052;47.466;9.094;2022-11-20T22:14:27;95260.22;;;5.46;75.31
46456;BME280;64052;47.466;9.094;2022-11-20T22:19:29;95265.72;;;5.54;76.10
46456;BME280;64052;47.466;9.094;2022-11-20T22:24:30;95265.72;;;5.54;75.61
46456;BME280;64052;47.466;9.094;2022-11-20T22:29:32;95267.28;;;5.57;75.06
46456;BME280;64052;47.466;9.094;2022-11-20T22:34:33;95271.59;;;5.69;76.14
46456;BME280;64052;47.466;9.094;2022-11-20T22:39:35;95264.34;;;5.84;75.08
46456;BME280;64052;47.466;9.094;2022-11-20T22:44:37;95260.34;;;5.91;74.97
46456;BME280;64052;47.466;9.094;2022-11-20T22:49:38;95257.53;;;6.06;74.24
46456;BME280;64052;47.466;9.094;2022-11-20T22:54:39;95261.94;;;6.17;74.17
46456;BME280;64052;47.466;9.094;2022-11-20T22:59:41;95251.69;;;6.02;74.24
46456;BME280;64052;47.466;9.094;2022-11-20T23:04:43;95232.03;;;5.97;74.82
46456;BME280;64052;47.466;9.094;2022-11-20T23:09:44;95242.63;;;5.95;73.97
46456;BME280;64052;47.466;9.094;2022-11-20T23:14:46;95246.94;;;6.08;73.28
46456;BME280;64052;47.466;9.094;2022-11-20T23:19:47;95241.94;;;6.16;72.15
46456;BME280;64052;47.466;9.094;2022-11-20T23:24:48;95246.09;;;6.07;72.09
46456;BME280;64052;47.466;9.094;2022-11-20T23:29:50;95239.09;;;6.19;71.73
46456;BME280;64052;47.466;9.094;2022-11-20T23:34:51;95229.69;;;6.05;72.03
46456;BME280;64052;47.466;9.094;2022-11-20T23:39:53;95234.78;;;5.95;72.67
46456;BME280;64052;47.466;9.094;2022-11-20T23:44:54;95226.81;;;6.08;72.65
46456;BME280;64052;47.466;9.094;2022-11-20T23:49:56;95229.44;;;6.08;71.78
46456;BME280;64052;47.466;9.094;2022-11-20T23:54:57;95213.88;;;6.18;71.35
46456;BME280;64052;47.466;9.094;2022-11-20T23:59:59;95215.41;;;6.21;70.73
